Map

Track Data

SID SEASON NUMBER BASIN SUBBASIN NAME ISO_TIME NATURE LAT LON WMO_WIND WMO_PRES WMO_AGENCY TRACK_TYPE DIST2LAND LANDFALL IFLAG USA_AGENCY USA_ATCF_ID USA_LAT USA_LON USA_RECORD USA_STATUS USA_WIND USA_PRES USA_SSHS USA_R34_NE USA_R34_SE USA_R34_SW USA_R34_NW USA_R50_NE USA_R50_SE USA_R50_SW USA_R50_NW USA_R64_NE USA_R64_SE USA_R64_SW USA_R64_NW USA_POCI USA_ROCI USA_RMW USA_EYE TOKYO_LAT TOKYO_LON TOKYO_GRADE TOKYO_WIND TOKYO_PRES TOKYO_R50_DIR TOKYO_R50_LONG TOKYO_R50_SHORT TOKYO_R30_DIR TOKYO_R30_LONG TOKYO_R30_SHORT TOKYO_LAND CMA_LAT CMA_LON CMA_CAT CMA_WIND CMA_PRES HKO_LAT HKO_LON HKO_CAT HKO_WIND HKO_PRES NEWDELHI_LAT NEWDELHI_LON NEWDELHI_GRADE NEWDELHI_WIND NEWDELHI_PRES NEWDELHI_CI NEWDELHI_DP NEWDELHI_POCI REUNION_LAT REUNION_LON REUNION_TYPE REUNION_WIND REUNION_PRES REUNION_TNUM REUNION_CI REUNION_RMW REUNION_R34_NE REUNION_R34_SE REUNION_R34_SW REUNION_R34_NW REUNION_R50_NE REUNION_R50_SE REUNION_R50_SW REUNION_R50_NW REUNION_R64_NE REUNION_R64_SE REUNION_R64_SW REUNION_R64_NW BOM_LAT BOM_LON BOM_TYPE BOM_WIND BOM_PRES BOM_TNUM BOM_CI BOM_RMW BOM_R34_NE BOM_R34_SE BOM_R34_SW BOM_R34_NW BOM_R50_NE BOM_R50_SE BOM_R50_SW BOM_R50_NW BOM_R64_NE BOM_R64_SE BOM_R64_SW BOM_R64_NW BOM_ROCI BOM_POCI BOM_EYE BOM_POS_METHOD BOM_PRES_METHOD NADI_LAT NADI_LON NADI_CAT NADI_WIND NADI_PRES WELLINGTON_LAT WELLINGTON_LON WELLINGTON_WIND WELLINGTON_PRES DS824_LAT DS824_LON DS824_STAGE DS824_WIND DS824_PRES TD9636_LAT TD9636_LON TD9636_STAGE TD9636_WIND TD9636_PRES TD9635_LAT TD9635_LON TD9635_WIND TD9635_PRES TD9635_ROCI NEUMANN_LAT NEUMANN_LON NEUMANN_CLASS NEUMANN_WIND NEUMANN_PRES MLC_LAT MLC_LON MLC_CLASS MLC_WIND MLC_PRES USA_GUST BOM_GUST BOM_GUST_PER REUNION_GUST REUNION_GUST_PER USA_SEAHGT USA_SEARAD_NE USA_SEARAD_SE USA_SEARAD_SW USA_SEARAD_NW STORM_SPEED STORM_DIR
1884182N21089 1884 15 NI BB NOT_NAMED 1884-06-30 00:00:00 TS 20.6000 88.8000 main 112 101 _________O____ -1 20.6000 88.8000 TC 30 2 333
1884182N21089 1884 15 NI BB NOT_NAMED 1884-06-30 03:00:00 TS 20.7000 88.7417 main 102 90 _________PO___ -1 20.7500 88.7125 TC 30 20.6000 88.8000 1 3 326
1884182N21089 1884 15 NI BB NOT_NAMED 1884-06-30 06:00:00 TS 20.8401 88.6276 main 90 67 _________OP___ -1 20.9000 88.6000 TC 30 20.7501 88.6690 1 4 320
1884182N21089 1884 15 NI BB NOT_NAMED 1884-06-30 09:00:00 TS 20.9858 88.4887 main 67 55 _________PP___ -1 21.0500 88.4500 TC 30 20.9002 88.5403 1 4 319
1884182N21089 1884 15 NI BB NOT_NAMED 1884-06-30 12:00:00 TS 21.1251 88.3582 main 55 33 _________OP___ -1 21.2000 88.3000 TC 30 21.0501 88.4165 1 4 322
1884182N21089 1884 15 NI BB NOT_NAMED 1884-06-30 15:00:00 TS 21.2750 88.2500 main 33 22 _________PO___ -1 21.3500 88.1999 TC 30 21.2000 88.3000 1 4 327
1884182N21089 1884 15 NI BB NOT_NAMED 1884-06-30 18:00:00 TS 21.4249 88.1455 main 24 15 _________OP___ -1 21.5000 88.1000 TC 30 21.3499 88.1911 1 4 325
1884182N21089 1884 15 NI BB NOT_NAMED 1884-06-30 21:00:00 TS 21.5749 88.0223 main 20 10 _________PP___ -1 21.6500 87.9650 TC 30 21.4998 88.0797 1 4 320
1884182N21089 1884 15 NI BB NOT_NAMED 1884-07-01 00:00:00 TS 21.7249 87.8768 main 10 0 _________OP___ -1 21.8000 87.8000 TC 30 21.6498 87.9535 1 4 316
1884182N21089 1884 15 NI BB NOT_NAMED 1884-07-01 03:00:00 TS 21.8750 87.7075 main 0 0 _________PO___ -1 21.9500 87.6150 TC 30 21.8000 87.8000 1 5 311
1884182N21089 1884 15 NI BB NOT_NAMED 1884-07-01 06:00:00 TS 22.0250 87.5019 main 0 0 _________OP___ -1 22.1000 87.4000 TC 30 21.9501 87.6038 1 5 306
1884182N21089 1884 15 NI BB NOT_NAMED 1884-07-01 09:00:00 TS 22.1750 87.2687 main 0 0 _________PP___ -1 22.2500 87.1575 TC 30 22.1001 87.3800 1 5 304
1884182N21089 1884 15 NI BB NOT_NAMED 1884-07-01 12:00:00 TS 22.3250 87.0206 main 0 0 _________OP___ -1 22.4000 86.9000 TC 30 22.2500 87.1412 1 6 303
1884182N21089 1884 15 NI BB NOT_NAMED 1884-07-01 15:00:00 TS 22.4750 86.7712 main 0 0 _________PO___ -1 22.5500 86.6425 TC 30 22.4000 86.9000 1 5 304
1884182N21089 1884 15 NI BB NOT_NAMED 1884-07-01 18:00:00 TS 22.6229 86.5434 main 0 0 _________OP___ -1 22.7000 86.4000 TC 30 22.5457 86.6869 1 5 306
1884182N21089 1884 15 NI BB NOT_NAMED 1884-07-01 21:00:00 TS 22.7673 86.3397 main 0 0 _________PP___ -1 22.8424 86.2073 TC 30 22.6922 86.4721 1 5 308
1884182N21089 1884 15 NI BB NOT_NAMED 1884-07-02 00:00:00 TS 22.9213 86.1231 main 0 0 _________OP___ -1 23.0000 86.0000 TC 30 22.8425 86.2462 1 6 307
1884182N21089 1884 15 NI BB NOT_NAMED 1884-07-02 03:00:00 TS 23.1000 85.8575 main 0 0 _________PO___ -1 23.2000 85.7151 TC 30 23.0000 86.0000 1 6 305
1884182N21089 1884 15 NI BB NOT_NAMED 1884-07-02 06:00:00 TS 23.2799 85.5607 main 0 0 _________OP___ -1 23.4000 85.4000 TC 30 23.1597 85.7214 1 6 302
1884182N21089 1884 15 NI BB NOT_NAMED 1884-07-02 09:00:00 TS 23.4387 85.2610 main 0 0 _________PP___ -1 23.5499 85.0998 TC 30 23.3275 85.4222 1 6 300
1884182N21089 1884 15 NI BB NOT_NAMED 1884-07-02 12:00:00 TS 23.6033 84.9560 main 0 0 _________OP___ -1 23.7000 84.8000 TC 30 23.5065 85.1119 1 7 302
1884182N21089 1884 15 NI BB NOT_NAMED 1884-07-02 15:00:00 TS 23.7925 84.6500 main 0 0 _________PO___ -1 23.8849 84.4999 TC 30 23.7000 84.8000 1 7 306
1884182N21089 1884 15 NI BB NOT_NAMED 1884-07-02 18:00:00 TS 24.0011 84.3519 main 0 0 _________OP___ -1 24.1000 84.2000 TC 30 23.9023 84.5037 1 7 309
1884182N21089 1884 15 NI BB NOT_NAMED 1884-07-02 21:00:00 TS 24.2310 84.0572 main 0 0 _________PP___ -1 24.3424 83.9074 TC 30 24.1197 84.2070 1 7 311
1884182N21089 1884 15 NI BB NOT_NAMED 1884-07-03 00:00:00 TS 24.4761 83.7534 main 0 0 _________OP___ -1 24.6000 83.6000 TC 30 24.3523 83.9067 1 8 310
1884182N21089 1884 15 NI BB NOT_NAMED 1884-07-03 03:00:00 TS 24.7213 83.4249 main 0 0 _________PO___ -1 24.8425 83.2499 TC 30 24.6000 83.6000 1 8 310
1884182N21089 1884 15 NI BB NOT_NAMED 1884-07-03 06:00:00 TS 24.9762 83.0929 main 0 0 _________OP___ -1 25.1000 82.9000 TC 30 24.8523 83.2858 1 8 313
1884182N21089 1884 15 NI BB NOT_NAMED 1884-07-03 09:00:00 TS 25.2560 82.7821 main 0 0 _________PP___ -1 25.3923 82.5998 TC 30 25.1197 82.9643 1 8 316
1884182N21089 1884 15 NI BB NOT_NAMED 1884-07-03 12:00:00 TS 25.5511 82.4678 main 0 0 _________OP___ -1 25.7000 82.3000 TC 30 25.4023 82.6357 1 8 315
1884182N21089 1884 15 NI BB NOT_NAMED 1884-07-03 15:00:00 TS 25.8462 82.1287 main 0 0 _________PO___ -1 25.9925 81.9573 TC 30 25.7000 82.3000 1 8 314
1884182N21089 1884 15 NI BB NOT_NAMED 1884-07-03 18:00:00 TS 26.1356 81.8043 main 0 0 _________OP___ -1 26.3000 81.6000 TC 30 26.0123 81.9576 1 9 316
1884182N21089 1884 15 NI BB NOT_NAMED 1884-07-03 21:00:00 TS 26.4575 81.4647 main 0 0 _________PP___ -1 26.6401 81.2480 TC 30 26.3357 81.6093 1 9 317
1884182N21089 1884 15 NI BB NOT_NAMED 1884-07-04 00:00:00 TS 26.7775 81.1376 main 0 0 _________OP___ -1 27.0000 80.9000 TC 30 26.6663 81.2563 1 7 317
1884182N21089 1884 15 NI BB NOT_NAMED 1884-07-04 03:00:00 NR 27.0000 80.9000 main 0 __________O___ -1 TC 27.0000 80.9000 1 6 316

About IBTrACS Database

This database is a web-friendly format of International Best Track Archive for Climate Stewardship (IBTrACS), a global best track data archive curated by NOAA dating back to 1842.

Updated: 2021-10-08